createdAt,value
2022-12-03T00:00:14.485Z,72.27
2022-12-03T00:01:14.781Z,72.27
2022-12-03T00:02:15.224Z,72.12
2022-12-03T00:03:15.421Z,72.01
2022-12-03T00:04:15.573Z,72.12
2022-12-03T00:05:15.920Z,71.90
2022-12-03T00:06:16.184Z,71.90
2022-12-03T00:07:16.532Z,71.90
2022-12-03T00:08:16.927Z,72.00
2022-12-03T00:09:17.110Z,72.00
2022-12-03T00:10:17.385Z,72.00
2022-12-03T00:11:17.741Z,72.00
2022-12-03T00:12:18.042Z,72.37
2022-12-03T00:13:18.313Z,72.28
2022-12-03T00:14:18.657Z,72.28
2022-12-03T00:15:18.993Z,72.07
2022-12-03T00:16:19.355Z,69.36
2022-12-03T00:17:19.573Z,69.35
2022-12-03T00:18:19.894Z,69.15
2022-12-03T00:19:20.162Z,68.95
2022-12-03T00:20:20.522Z,68.95
2022-12-03T00:21:20.803Z,68.95
2022-12-03T00:22:21.150Z,69.14
2022-12-03T00:23:21.412Z,69.15
2022-12-03T00:24:21.769Z,69.15
2022-12-03T00:25:22.053Z,69.15
2022-12-03T00:26:22.374Z,69.15
2022-12-03T00:27:22.702Z,69.15
2022-12-03T00:28:23.078Z,69.25
2022-12-03T00:29:23.355Z,69.25
2022-12-03T00:30:23.719Z,69.25
2022-12-03T00:31:24.062Z,69.25
2022-12-03T00:32:24.345Z,69.35
2022-12-03T00:33:24.672Z,69.46
2022-12-03T00:34:25.012Z,71.90
2022-12-03T00:35:25.372Z,71.90
2022-12-03T00:36:25.643Z,72.07
2022-12-03T00:37:26.001Z,71.88
2022-12-03T00:38:26.291Z,69.24
2022-12-03T00:39:26.629Z,69.24
2022-12-03T00:40:26.966Z,71.88
2022-12-03T00:41:27.266Z,72.00
2022-12-03T00:42:27.570Z,71.97
2022-12-03T00:43:27.836Z,71.88
2022-12-03T00:44:28.190Z,72.07
2022-12-03T00:45:28.498Z,71.88
2022-12-03T00:46:28.845Z,71.88
2022-12-03T00:47:28.994Z,71.97
2022-12-03T00:48:29.348Z,71.97
2022-12-03T00:49:29.686Z,71.97
2022-12-03T00:50:29.983Z,72.27
2022-12-03T00:51:30.292Z,72.37
2022-12-03T00:52:30.572Z,72.29
2022-12-03T00:53:30.893Z,72.39
2022-12-03T00:54:32.240Z,72.39
2022-12-03T00:55:31.475Z,72.49
2022-12-03T00:56:31.790Z,71.91
2022-12-03T00:57:32.072Z,72.28
2022-12-03T00:58:32.423Z,72.28
2022-12-03T00:59:32.728Z,72.27
2022-12-03T01:00:33.047Z,72.07
2022-12-03T01:01:33.358Z,72.27
2022-12-03T01:02:33.660Z,72.28
2022-12-03T01:03:33.953Z,72.27
2022-12-03T01:04:34.370Z,72.07
2022-12-03T01:05:34.538Z,71.88
2022-12-03T01:06:34.831Z,71.88
2022-12-03T01:07:35.234Z,71.88
2022-12-03T01:08:35.403Z,72.47
2022-12-03T01:09:35.724Z,72.46
2022-12-03T01:10:36.090Z,71.97
2022-12-03T01:11:36.388Z,69.14
2022-12-03T01:12:36.663Z,71.97
2022-12-03T01:13:36.972Z,71.97
2022-12-03T01:14:37.308Z,72.08
2022-12-03T01:15:37.694Z,72.47
2022-12-03T01:16:38.043Z,72.47
2022-12-03T01:17:38.303Z,72.46
2022-12-03T01:18:38.622Z,72.27
2022-12-03T01:19:42.239Z,72.27
2022-12-03T01:20:40.305Z,72.27
2022-12-03T01:21:48.738Z,72.27
2022-12-03T01:22:40.593Z,71.99
2022-12-03T01:23:40.193Z,72.27
2022-12-03T01:24:40.535Z,72.46
2022-12-03T01:25:40.859Z,72.46
2022-12-03T01:26:41.107Z,71.88
2022-12-03T01:27:41.445Z,72.46
2022-12-03T01:28:41.783Z,72.46
2022-12-03T01:29:42.133Z,72.38
2022-12-03T01:30:42.427Z,72.38
2022-12-03T01:31:42.802Z,72.47
2022-12-03T01:32:42.973Z,71.88
2022-12-03T01:33:43.325Z,71.88
2022-12-03T01:34:43.636Z,72.08
2022-12-03T01:35:43.963Z,72.27
2022-12-03T01:36:44.237Z,72.27
2022-12-03T01:37:44.587Z,72.33
2022-12-03T01:38:44.876Z,72.33
2022-12-03T01:39:45.223Z,71.94
2022-12-03T01:40:45.547Z,71.94
2022-12-03T01:41:45.829Z,71.94
2022-12-03T01:42:46.157Z,71.88
2022-12-03T01:43:46.478Z,71.88
2022-12-03T01:44:46.834Z,71.88
2022-12-03T01:45:47.137Z,71.94
2022-12-03T01:46:47.514Z,72.33
2022-12-03T01:47:47.728Z,72.31
2022-12-03T01:48:48.095Z,71.94
2022-12-03T01:49:48.377Z,72.27
2022-12-03T01:50:48.727Z,72.27
2022-12-03T01:51:49.001Z,72.28
2022-12-03T01:52:49.327Z,69.00
2022-12-03T01:53:49.651Z,69.19
2022-12-03T01:54:50.066Z,69.20
2022-12-03T01:55:50.316Z,69.20
2022-12-03T01:56:50.604Z,68.80
2022-12-03T01:57:50.926Z,68.76
2022-12-03T01:58:51.256Z,68.81
2022-12-03T01:59:51.579Z,69.19
2022-12-03T02:00:51.945Z,68.81
2022-12-03T02:01:52.256Z,68.81
2022-12-03T02:02:52.537Z,68.81
2022-12-03T02:03:52.936Z,68.81
2022-12-03T02:04:53.362Z,68.80
2022-12-03T02:05:53.454Z,68.76
2022-12-03T02:06:53.736Z,69.04
2022-12-03T02:07:54.149Z,69.15
2022-12-03T02:08:54.354Z,68.80
2022-12-03T02:09:54.652Z,68.80
2022-12-03T02:10:54.957Z,68.81
2022-12-03T02:11:55.239Z,68.81
2022-12-03T02:12:55.591Z,68.81
2022-12-03T02:13:55.890Z,68.81
2022-12-03T02:14:56.351Z,68.80
2022-12-03T02:15:56.629Z,68.81
2022-12-03T02:16:56.787Z,71.88
2022-12-03T02:17:57.143Z,71.94
2022-12-03T02:18:57.429Z,69.19
2022-12-03T02:19:57.785Z,69.29
2022-12-03T02:20:58.109Z,69.29
2022-12-03T02:21:58.386Z,69.29
2022-12-03T02:22:58.717Z,69.19
2022-12-03T02:23:59.076Z,68.76
2022-12-03T02:24:59.352Z,69.15
2022-12-03T02:25:59.701Z,68.80
2022-12-03T02:26:59.976Z,69.21
2022-12-03T02:28:00.306Z,68.91
2022-12-03T02:29:00.636Z,68.76
2022-12-03T02:30:01.006Z,69.14
2022-12-03T02:31:01.381Z,69.14
2022-12-03T02:32:01.536Z,68.80
2022-12-03T02:33:01.893Z,69.15
2022-12-03T02:34:02.175Z,68.85
2022-12-03T02:35:02.521Z,68.80
2022-12-03T02:36:04.022Z,68.75
2022-12-03T02:37:03.124Z,68.90
2022-12-03T02:38:03.450Z,68.80
2022-12-03T02:39:03.775Z,69.21
2022-12-03T02:40:04.122Z,68.91
2022-12-03T02:41:04.416Z,68.91
2022-12-03T02:42:04.687Z,68.80
2022-12-03T02:43:05.043Z,68.90
2022-12-03T02:44:05.355Z,69.14
2022-12-03T02:45:06.038Z,69.14
2022-12-03T02:46:05.937Z,69.15
2022-12-03T02:47:06.403Z,69.14
2022-12-03T02:48:06.577Z,69.14
2022-12-03T02:49:06.851Z,69.24
2022-12-03T02:50:07.171Z,69.14
2022-12-03T02:51:07.510Z,68.75
2022-12-03T02:52:07.801Z,68.76
2022-12-03T02:53:08.143Z,69.14
2022-12-03T02:54:08.460Z,71.89
2022-12-03T02:55:08.736Z,69.45
2022-12-03T02:56:09.113Z,69.34
2022-12-03T02:57:09.423Z,69.34
2022-12-03T02:58:09.724Z,69.34
2022-12-03T02:59:10.007Z,69.45
2022-12-03T03:00:10.347Z,69.45
2022-12-03T03:01:10.748Z,69.34
2022-12-03T03:02:10.967Z,69.21
2022-12-03T03:03:11.148Z,69.21
2022-12-03T03:04:11.502Z,69.21
2022-12-03T03:05:11.811Z,69.21
2022-12-03T03:06:12.095Z,69.25
2022-12-03T03:07:12.427Z,69.14
2022-12-03T03:08:12.859Z,68.76
2022-12-03T03:09:13.064Z,68.76
2022-12-03T03:10:13.346Z,68.81
2022-12-03T03:11:13.699Z,66.02
2022-12-03T03:12:14.001Z,66.02
2022-12-03T03:13:14.300Z,66.11
2022-12-03T03:14:14.592Z,66.11
2022-12-03T03:15:14.942Z,65.72
2022-12-03T03:16:15.322Z,65.72
2022-12-03T03:17:15.496Z,66.02
2022-12-03T03:18:15.801Z,66.02
2022-12-03T03:19:16.419Z,65.72
2022-12-03T03:20:16.406Z,66.02
2022-12-03T03:21:16.764Z,65.82
2022-12-03T03:22:17.073Z,66.02
2022-12-03T03:23:17.371Z,66.22
2022-12-03T03:24:17.682Z,66.22
2022-12-03T03:25:17.992Z,66.22
2022-12-03T03:26:18.310Z,66.13
2022-12-03T03:27:18.630Z,66.02
2022-12-03T03:28:18.950Z,65.92
2022-12-03T03:29:19.251Z,65.62
2022-12-03T03:30:19.525Z,65.83
2022-12-03T03:31:19.922Z,65.92
2022-12-03T03:32:20.183Z,65.83
2022-12-03T03:33:20.522Z,66.02
2022-12-03T03:34:20.891Z,66.02
2022-12-03T03:35:21.176Z,65.83
2022-12-03T03:36:21.558Z,65.82
2022-12-03T03:37:21.857Z,65.92
2022-12-03T03:38:22.203Z,66.02
2022-12-03T03:39:22.491Z,66.02
2022-12-03T03:40:22.859Z,66.13
2022-12-03T03:41:23.162Z,66.02
2022-12-03T03:42:23.472Z,65.92
2022-12-03T03:43:23.771Z,65.92
2022-12-03T03:44:24.044Z,66.02
2022-12-03T03:45:29.073Z,65.92
2022-12-03T03:46:25.747Z,66.02
2022-12-03T03:47:24.954Z,66.02
2022-12-03T03:48:25.273Z,66.02
2022-12-03T03:49:25.620Z,66.02
2022-12-03T03:50:25.895Z,65.82
2022-12-03T03:51:26.271Z,66.02
2022-12-03T03:52:26.579Z,66.02
2022-12-03T03:53:26.903Z,65.62
2022-12-03T03:54:27.199Z,66.02
2022-12-03T03:55:27.524Z,65.83
2022-12-03T03:56:27.878Z,65.62
2022-12-03T03:57:28.200Z,65.62
2022-12-03T03:58:28.461Z,65.83
2022-12-03T03:59:28.831Z,65.82
2022-12-03T04:00:29.135Z,65.83
2022-12-03T04:01:29.501Z,66.02
2022-12-03T04:02:29.672Z,66.22
2022-12-03T04:03:29.954Z,65.62
2022-12-03T04:04:30.349Z,66.13
2022-12-03T04:05:30.572Z,66.22
2022-12-03T04:06:30.939Z,65.62
2022-12-03T04:07:31.327Z,65.83
2022-12-03T04:08:31.504Z,65.63
2022-12-03T04:09:31.786Z,65.62
2022-12-03T04:10:32.087Z,65.63
2022-12-03T04:11:32.428Z,65.83
2022-12-03T04:12:32.730Z,65.82
2022-12-03T04:13:33.082Z,66.02
2022-12-03T04:14:33.344Z,65.83
2022-12-03T04:15:33.667Z,65.63
2022-12-03T04:16:34.090Z,65.83
2022-12-03T04:17:34.275Z,66.02
2022-12-03T04:18:34.560Z,66.22
2022-12-03T04:19:34.900Z,66.02
2022-12-03T04:20:35.217Z,69.14
2022-12-03T04:21:35.515Z,68.76
2022-12-03T04:22:35.821Z,66.22
2022-12-03T04:23:36.148Z,66.02
2022-12-03T04:24:36.460Z,65.72
2022-12-03T04:25:36.783Z,66.02
2022-12-03T04:26:37.151Z,66.02
2022-12-03T04:27:37.470Z,66.11
2022-12-03T04:28:37.735Z,65.62
2022-12-03T04:29:38.090Z,65.62
2022-12-03T04:30:38.435Z,65.62
2022-12-03T04:31:38.621Z,65.62
2022-12-03T04:32:38.989Z,66.02
2022-12-03T04:33:39.281Z,65.62
2022-12-03T04:34:39.602Z,65.72
2022-12-03T04:35:39.972Z,66.02
2022-12-03T04:36:40.332Z,65.62
2022-12-03T04:37:40.510Z,65.62
2022-12-03T04:38:40.901Z,65.72
2022-12-03T04:39:41.086Z,65.73
2022-12-03T04:40:41.391Z,66.02
2022-12-03T04:41:41.675Z,66.04
2022-12-03T04:42:42.046Z,66.04
2022-12-03T04:43:42.333Z,66.04
2022-12-03T04:44:42.642Z,66.04
2022-12-03T04:45:42.964Z,66.04
2022-12-03T04:46:43.252Z,66.25
2022-12-03T04:47:43.559Z,66.35
2022-12-03T04:48:43.860Z,68.85
2022-12-03T04:49:44.161Z,68.85
2022-12-03T04:50:44.457Z,68.95
2022-12-03T04:51:44.792Z,68.75
2022-12-03T04:52:45.104Z,66.04
2022-12-03T04:53:46.273Z,65.72
2022-12-03T04:54:45.681Z,66.14
2022-12-03T04:55:45.998Z,66.14
2022-12-03T04:56:46.334Z,66.14
2022-12-03T04:57:46.673Z,66.14
2022-12-03T04:58:46.995Z,66.14
2022-12-03T04:59:47.290Z,65.63
2022-12-03T05:00:47.630Z,66.14
2022-12-03T05:01:47.991Z,65.73
2022-12-03T05:02:48.365Z,66.14
2022-12-03T05:03:48.573Z,65.62
2022-12-03T05:04:48.903Z,66.14
2022-12-03T05:05:49.224Z,66.14
2022-12-03T05:06:49.580Z,66.04
2022-12-03T05:07:49.952Z,65.62
2022-12-03T05:08:50.115Z,65.83
2022-12-03T05:09:50.442Z,66.24
2022-12-03T05:10:50.788Z,66.13
2022-12-03T05:11:51.152Z,65.67
2022-12-03T05:12:51.447Z,65.67
2022-12-03T05:13:51.753Z,65.87
2022-12-03T05:14:52.424Z,66.09
2022-12-03T05:15:52.332Z,66.02
2022-12-03T05:16:52.784Z,66.03
2022-12-03T05:17:52.934Z,66.13
2022-12-03T05:18:53.255Z,66.24
2022-12-03T05:19:53.586Z,65.65
2022-12-03T05:20:53.994Z,65.87
2022-12-03T05:21:54.265Z,66.06
2022-12-03T05:22:54.579Z,66.03
2022-12-03T05:23:54.889Z,66.24
2022-12-03T05:24:55.651Z,65.65
2022-12-03T05:25:55.530Z,66.14
2022-12-03T05:26:55.895Z,66.14
2022-12-03T05:27:56.168Z,66.04
2022-12-03T05:28:56.511Z,66.12
2022-12-03T05:29:56.859Z,66.13
2022-12-03T05:30:57.198Z,66.12
2022-12-03T05:31:57.541Z,66.04
2022-12-03T05:32:57.835Z,66.04
2022-12-03T05:33:58.193Z,66.04
2022-12-03T05:34:58.482Z,66.06
2022-12-03T05:35:58.852Z,66.08
2022-12-03T05:36:59.170Z,65.67
2022-12-03T05:37:59.468Z,66.08
2022-12-03T05:38:59.779Z,65.67
2022-12-03T05:40:00.077Z,65.67
2022-12-03T05:41:00.408Z,66.08
2022-12-03T05:42:00.774Z,65.79
2022-12-03T05:43:01.052Z,65.73
2022-12-03T05:44:01.412Z,66.02
2022-12-03T05:45:01.716Z,66.13
2022-12-03T05:46:02.075Z,65.73
2022-12-03T05:47:02.259Z,65.73
2022-12-03T05:48:02.562Z,66.02
2022-12-03T05:49:02.858Z,66.02
2022-12-03T05:50:03.124Z,65.69
2022-12-03T05:51:03.461Z,66.06
2022-12-03T05:52:03.816Z,65.67
2022-12-03T05:53:04.149Z,65.69
2022-12-03T05:54:04.438Z,65.69
2022-12-03T05:55:04.754Z,65.69
2022-12-03T05:56:05.100Z,65.69
2022-12-03T05:57:05.393Z,66.12
2022-12-03T05:58:05.708Z,65.79
2022-12-03T05:59:06.018Z,66.06
2022-12-03T06:00:06.317Z,66.06
2022-12-03T06:01:06.648Z,68.76
2022-12-03T06:02:07.101Z,65.69
2022-12-03T06:03:07.410Z,66.06
2022-12-03T06:04:07.674Z,66.06
2022-12-03T06:05:07.857Z,66.08
2022-12-03T06:06:08.141Z,66.08
2022-12-03T06:07:13.593Z,66.06
2022-12-03T06:08:09.816Z,66.17
2022-12-03T06:09:09.055Z,66.06
2022-12-03T06:10:09.365Z,65.67
2022-12-03T06:11:09.719Z,65.67
2022-12-03T06:12:10.062Z,66.02
2022-12-03T06:13:10.368Z,66.02
2022-12-03T06:14:10.641Z,65.67
2022-12-03T06:15:10.998Z,65.64
2022-12-03T06:16:11.364Z,65.67
2022-12-03T06:17:11.571Z,66.06
2022-12-03T06:18:11.901Z,66.18
2022-12-03T06:19:12.333Z,66.06
2022-12-03T06:20:12.506Z,65.73
2022-12-03T06:21:12.818Z,66.24
2022-12-03T06:22:13.290Z,66.02
2022-12-03T06:23:13.443Z,65.79
2022-12-03T06:24:13.796Z,65.70
2022-12-03T06:25:14.081Z,65.73
2022-12-03T06:26:14.434Z,66.13
2022-12-03T06:27:14.767Z,66.03
2022-12-03T06:28:15.004Z,66.04
2022-12-03T06:29:15.313Z,66.04
2022-12-03T06:30:15.709Z,66.04
2022-12-03T06:31:16.044Z,68.77
2022-12-03T06:32:16.277Z,68.77
2022-12-03T06:33:16.541Z,69.24
2022-12-03T06:34:16.863Z,68.88
2022-12-03T06:35:17.205Z,68.77
2022-12-03T06:36:22.595Z,69.17
2022-12-03T06:37:18.859Z,68.75
2022-12-03T06:38:18.070Z,68.76
2022-12-03T06:39:18.428Z,68.87
2022-12-03T06:40:18.712Z,65.82
2022-12-03T06:41:19.057Z,65.82
2022-12-03T06:42:19.402Z,65.82
2022-12-03T06:43:19.694Z,65.82
2022-12-03T06:44:19.998Z,65.82
2022-12-03T06:45:20.301Z,65.64
2022-12-03T06:46:20.665Z,65.82
2022-12-03T06:47:20.966Z,65.92
2022-12-03T06:48:21.319Z,65.64
2022-12-03T06:49:21.631Z,65.92
2022-12-03T06:50:21.942Z,65.64
2022-12-03T06:51:22.258Z,65.64
2022-12-03T06:52:22.616Z,65.92
2022-12-03T06:53:22.773Z,65.92
2022-12-03T06:54:23.092Z,65.92
2022-12-03T06:55:24.331Z,65.82
2022-12-03T06:56:23.712Z,65.64
2022-12-03T06:57:24.010Z,65.74
2022-12-03T06:58:24.294Z,66.02
2022-12-03T06:59:24.658Z,65.92
2022-12-03T07:00:24.987Z,65.64
2022-12-03T07:01:25.390Z,65.92
2022-12-03T07:02:25.636Z,65.74
2022-12-03T07:03:25.894Z,65.64
2022-12-03T07:04:26.052Z,65.82
2022-12-03T07:05:26.388Z,65.74
2022-12-03T07:06:26.761Z,65.82
2022-12-03T07:07:27.174Z,65.92
2022-12-03T07:08:27.390Z,65.82
2022-12-03T07:09:27.638Z,65.74
2022-12-03T07:10:27.955Z,65.82
2022-12-03T07:11:28.332Z,65.67
2022-12-03T07:12:28.530Z,65.92
2022-12-03T07:13:28.858Z,65.62
2022-12-03T07:14:29.185Z,65.67
2022-12-03T07:15:29.570Z,65.92
2022-12-03T07:16:29.773Z,65.92
2022-12-03T07:17:29.985Z,65.62
2022-12-03T07:18:30.281Z,65.73
2022-12-03T07:19:32.780Z,65.73
2022-12-03T07:20:30.966Z,65.87
2022-12-03T07:21:31.242Z,65.62
2022-12-03T07:22:31.602Z,65.73
2022-12-03T07:23:38.957Z,65.73
2022-12-03T07:24:32.194Z,65.97
2022-12-03T07:25:32.397Z,66.06
2022-12-03T07:26:32.682Z,66.06
2022-12-03T07:27:32.985Z,65.64
2022-12-03T07:28:33.302Z,66.08
2022-12-03T07:29:33.545Z,66.06
2022-12-03T07:30:33.851Z,66.06
2022-12-03T07:31:34.099Z,66.06
2022-12-03T07:32:34.375Z,66.06
2022-12-03T07:33:34.577Z,65.78
2022-12-03T07:34:34.817Z,66.03
2022-12-03T07:35:35.019Z,68.76
2022-12-03T07:36:35.346Z,68.76
2022-12-03T07:37:35.690Z,66.03
2022-12-03T07:38:35.933Z,65.69
2022-12-03T07:39:36.218Z,65.78
2022-12-03T07:40:36.577Z,65.64
2022-12-03T07:41:36.808Z,65.64
2022-12-03T07:42:37.166Z,65.74
2022-12-03T07:43:37.382Z,65.74
2022-12-03T07:44:37.716Z,65.64
2022-12-03T07:45:39.003Z,65.74
2022-12-03T07:46:38.368Z,65.64
2022-12-03T07:47:38.577Z,65.92
2022-12-03T07:48:38.865Z,65.92
2022-12-03T07:49:39.254Z,65.74
2022-12-03T07:50:39.342Z,65.92
2022-12-03T07:51:39.613Z,65.64
2022-12-03T07:52:39.952Z,65.74
2022-12-03T07:53:40.275Z,68.85
2022-12-03T07:54:40.550Z,65.94
2022-12-03T07:55:40.751Z,65.64
2022-12-03T07:56:40.991Z,65.62
2022-12-03T07:57:41.270Z,65.94
2022-12-03T07:58:41.467Z,65.62
2022-12-03T07:59:41.739Z,65.62
2022-12-03T08:00:41.998Z,65.83
2022-12-03T08:01:42.228Z,65.62
2022-12-03T08:02:42.517Z,65.83
2022-12-03T08:03:43.615Z,65.83
2022-12-03T08:04:43.020Z,65.63
2022-12-03T08:05:43.333Z,65.83
2022-12-03T08:06:44.515Z,65.94
2022-12-03T08:07:43.954Z,65.91
2022-12-03T08:08:45.111Z,65.91
2022-12-03T08:09:44.374Z,65.70
2022-12-03T08:10:44.686Z,65.77
2022-12-03T08:11:44.906Z,65.67
2022-12-03T08:12:45.323Z,65.77
2022-12-03T08:13:45.556Z,65.77
2022-12-03T08:14:45.755Z,65.67
2022-12-03T08:15:46.012Z,65.67
2022-12-03T08:16:46.343Z,65.65
2022-12-03T08:17:46.598Z,65.62
2022-12-03T08:18:46.823Z,65.62
2022-12-03T08:19:47.018Z,64.47
2022-12-03T08:20:47.282Z,64.37
2022-12-03T08:21:47.577Z,64.37
2022-12-03T08:22:47.972Z,64.37
2022-12-03T08:23:48.190Z,64.26
2022-12-03T08:26:14.045Z,63.72
2022-12-03T08:27:15.085Z,64.06
2022-12-03T08:28:14.613Z,65.72
2022-12-03T08:29:14.906Z,66.04
2022-12-03T08:30:15.163Z,66.14
2022-12-03T08:31:15.473Z,65.63
2022-12-03T08:32:15.675Z,65.72
2022-12-03T08:33:15.942Z,65.72
2022-12-03T08:34:17.081Z,65.62
2022-12-03T08:35:16.448Z,66.11
2022-12-03T08:36:16.717Z,65.88
2022-12-03T08:37:16.924Z,65.77
2022-12-03T08:38:17.167Z,65.67
2022-12-03T08:39:17.400Z,65.83
2022-12-03T08:40:17.634Z,65.66
2022-12-03T08:41:17.879Z,65.66
2022-12-03T08:42:18.191Z,65.65
2022-12-03T08:43:18.436Z,65.65
2022-12-03T08:44:18.721Z,65.05
2022-12-03T08:45:18.940Z,65.05
2022-12-03T08:46:19.337Z,65.05
2022-12-03T08:47:19.593Z,65.16
2022-12-03T08:48:19.820Z,65.37
2022-12-03T08:49:20.148Z,65.26
2022-12-03T08:50:20.466Z,64.86
2022-12-03T08:51:20.744Z,64.95
2022-12-03T08:52:20.974Z,64.84
2022-12-03T08:53:21.211Z,64.95
2022-12-03T08:54:21.423Z,64.84
2022-12-03T08:55:21.806Z,64.84
2022-12-03T08:56:21.998Z,64.14
2022-12-03T08:57:22.265Z,63.51
2022-12-03T08:58:22.626Z,64.12
2022-12-03T08:59:22.830Z,64.31
2022-12-03T09:00:23.174Z,64.53
2022-12-03T09:01:23.664Z,64.54
2022-12-03T09:02:23.757Z,64.84
2022-12-03T09:03:23.987Z,64.54
2022-12-03T09:04:24.398Z,64.14
2022-12-03T09:05:24.486Z,64.53
2022-12-03T09:06:24.816Z,64.12
2022-12-03T09:07:25.106Z,63.51
2022-12-03T09:08:25.351Z,63.62
2022-12-03T09:09:25.707Z,64.12
2022-12-03T09:10:25.888Z,64.12
2022-12-03T09:11:26.157Z,64.11
2022-12-03T09:12:26.373Z,64.31
2022-12-03T09:13:26.613Z,64.11
2022-12-03T09:14:26.867Z,64.31
2022-12-03T09:15:27.093Z,64.97
2022-12-03T09:16:27.518Z,65.05
2022-12-03T09:17:27.697Z,64.43
2022-12-03T09:18:28.053Z,64.43
2022-12-03T09:19:28.247Z,64.21
2022-12-03T09:20:28.516Z,64.43
2022-12-03T09:21:28.870Z,64.95
2022-12-03T09:22:29.103Z,64.50
2022-12-03T09:23:29.414Z,64.50
2022-12-03T09:24:29.674Z,64.09
2022-12-03T09:25:29.934Z,63.45
2022-12-03T09:26:30.174Z,62.84
2022-12-03T09:27:30.374Z,62.84
2022-12-03T09:28:30.688Z,62.84
2022-12-03T09:29:30.888Z,63.45
2022-12-03T09:30:31.127Z,62.73
2022-12-03T09:31:31.479Z,62.73
2022-12-03T09:32:31.724Z,62.82
2022-12-03T09:33:31.945Z,62.82
2022-12-03T09:34:32.203Z,65.14
2022-12-03T09:35:32.554Z,62.52
2022-12-03T09:36:32.787Z,62.53
2022-12-03T09:37:33.024Z,62.74
2022-12-03T09:38:33.253Z,62.84
2022-12-03T09:39:33.453Z,62.74
2022-12-03T09:40:33.677Z,62.70
2022-12-03T09:41:33.926Z,65.14
2022-12-03T09:42:34.255Z,65.08
2022-12-03T09:44:02.784Z,65.08
2022-12-03T09:44:35.863Z,65.08
2022-12-03T09:45:36.097Z,65.08
2022-12-03T09:46:35.506Z,65.08
2022-12-03T09:47:35.612Z,64.20
2022-12-03T09:48:35.932Z,64.20
2022-12-03T09:49:36.195Z,63.31
2022-12-03T09:50:36.407Z,62.50
2022-12-03T09:51:36.738Z,62.52
2022-12-03T09:52:37.076Z,62.99
2022-12-03T09:53:41.165Z,64.06
2022-12-03T09:54:38.181Z,64.09
2022-12-03T09:55:37.967Z,63.29
2022-12-03T09:56:38.193Z,62.51
2022-12-03T09:57:38.560Z,62.52
2022-12-03T09:58:38.776Z,63.29
2022-12-03T09:59:39.115Z,62.79
2022-12-03T10:00:39.569Z,62.99
2022-12-03T10:01:39.668Z,62.89
2022-12-03T10:02:39.849Z,63.21
2022-12-03T10:03:40.135Z,63.09
2022-12-03T10:04:40.455Z,63.09
2022-12-03T10:05:45.197Z,63.09
2022-12-03T10:06:45.845Z,64.07
2022-12-03T10:07:41.375Z,63.11
2022-12-03T10:08:41.588Z,62.79
2022-12-03T10:09:41.917Z,62.89
2022-12-03T10:10:42.138Z,63.11
2022-12-03T10:11:42.399Z,62.99
2022-12-03T10:12:42.736Z,64.09
2022-12-03T10:13:42.976Z,62.89
2022-12-03T10:14:43.199Z,62.62
2022-12-03T10:15:43.429Z,62.89
2022-12-03T10:16:43.893Z,63.28
2022-12-03T10:17:44.145Z,63.28
2022-12-03T10:18:44.449Z,62.74
2022-12-03T10:19:44.696Z,63.01
2022-12-03T10:20:44.943Z,62.53
2022-12-03T10:21:45.259Z,62.65
2022-12-03T10:22:45.516Z,62.53
2022-12-03T10:23:48.350Z,62.55
2022-12-03T10:24:47.108Z,63.06
2022-12-03T10:25:46.360Z,64.45
2022-12-03T10:26:46.619Z,62.52
2022-12-03T10:27:46.841Z,62.53
2022-12-03T10:28:47.115Z,62.53
2022-12-03T10:29:47.335Z,62.97
2022-12-03T10:30:47.628Z,62.53
2022-12-03T10:31:47.916Z,62.60
2022-12-03T10:32:48.161Z,62.62
2022-12-03T10:33:48.391Z,62.70
2022-12-03T10:34:48.696Z,62.70
2022-12-03T10:35:48.925Z,62.51
2022-12-03T10:36:49.169Z,62.51
2022-12-03T10:37:49.387Z,62.70
2022-12-03T10:38:49.638Z,62.61
2022-12-03T10:39:55.477Z,62.56
2022-12-03T10:40:51.227Z,57.84
2022-12-03T10:41:50.525Z,57.43
2022-12-03T10:42:50.754Z,57.43
2022-12-03T10:43:50.959Z,57.63
2022-12-03T10:44:51.561Z,57.63
2022-12-03T10:45:51.593Z,57.63
2022-12-03T10:46:51.910Z,62.50
2022-12-03T10:47:52.211Z,62.50
2022-12-03T10:48:52.454Z,57.52
2022-12-03T10:49:52.701Z,57.43
2022-12-03T10:50:52.908Z,57.43
2022-12-03T10:51:53.259Z,62.50
2022-12-03T10:52:53.683Z,62.50
2022-12-03T10:53:53.689Z,57.23
2022-12-03T10:54:54.270Z,57.13
2022-12-03T10:55:54.275Z,57.13
2022-12-03T10:56:54.470Z,57.13
2022-12-03T10:57:54.786Z,57.42
2022-12-03T10:58:55.016Z,62.51
2022-12-03T10:59:55.218Z,63.68
2022-12-03T11:00:55.514Z,63.57
2022-12-03T11:01:55.815Z,63.54
2022-12-03T11:02:57.209Z,57.51
2022-12-03T11:03:56.352Z,57.60
2022-12-03T11:04:56.772Z,62.60
2022-12-03T11:05:56.868Z,57.21
2022-12-03T11:06:57.159Z,57.14
2022-12-03T11:07:57.476Z,57.24
2022-12-03T11:09:00.436Z,62.55
2022-12-03T11:09:58.966Z,57.34
2022-12-03T11:10:58.246Z,57.20
2022-12-03T11:11:58.505Z,57.42
2022-12-03T11:12:58.734Z,62.50
2022-12-03T11:13:58.975Z,57.50
2022-12-03T11:14:59.206Z,57.10
2022-12-03T11:15:59.506Z,57.46
2022-12-03T11:16:59.768Z,56.54
2022-12-03T11:17:59.951Z,57.14
2022-12-03T11:19:00.230Z,57.35
2022-12-03T11:20:00.549Z,57.07
2022-12-03T11:21:00.813Z,62.82
2022-12-03T11:22:01.186Z,57.46
2022-12-03T11:23:01.368Z,56.65
2022-12-03T11:24:01.616Z,57.05
2022-12-03T11:25:01.862Z,56.64
2022-12-03T11:26:02.128Z,56.69
2022-12-03T11:27:02.457Z,56.69
2022-12-03T11:28:02.780Z,57.09
2022-12-03T11:29:03.098Z,56.88
2022-12-03T11:30:03.397Z,56.88
2022-12-03T11:31:03.625Z,56.68
2022-12-03T11:32:03.890Z,56.88
2022-12-03T11:33:04.091Z,57.09
2022-12-03T11:34:04.365Z,57.30
2022-12-03T11:35:04.567Z,57.28
2022-12-03T11:36:04.876Z,57.08
2022-12-03T11:37:05.114Z,57.08
2022-12-03T11:38:05.328Z,56.26
2022-12-03T11:39:05.579Z,57.36
2022-12-03T11:40:05.786Z,56.29
2022-12-03T11:41:06.060Z,56.29
2022-12-03T11:42:06.323Z,56.36
2022-12-03T11:43:06.537Z,56.27
2022-12-03T11:44:06.788Z,56.47
2022-12-03T11:45:07.153Z,56.38
2022-12-03T11:46:07.417Z,56.47
2022-12-03T11:47:07.694Z,56.26
2022-12-03T11:48:07.909Z,56.36
2022-12-03T11:49:08.251Z,56.36
2022-12-03T11:50:08.604Z,56.45
2022-12-03T11:51:08.807Z,56.27
2022-12-03T11:52:09.083Z,56.68
2022-12-03T11:53:10.276Z,56.27
2022-12-03T11:54:09.528Z,56.25
2022-12-03T11:55:09.790Z,56.27
2022-12-03T11:56:10.110Z,57.18
2022-12-03T11:57:10.367Z,56.64
2022-12-03T11:58:10.653Z,57.18
2022-12-03T11:59:10.858Z,57.28
2022-12-03T12:00:11.188Z,57.28
2022-12-03T12:01:11.497Z,57.28
2022-12-03T12:02:11.797Z,57.47
2022-12-03T12:03:12.172Z,56.88
2022-12-03T12:04:12.335Z,62.71
2022-12-03T12:05:12.527Z,56.98
2022-12-03T12:06:12.859Z,56.64
2022-12-03T12:07:13.110Z,56.89
2022-12-03T12:08:13.384Z,57.28
2022-12-03T12:09:13.627Z,56.89
2022-12-03T12:10:13.845Z,57.28
2022-12-03T12:11:14.109Z,56.45
2022-12-03T12:12:14.438Z,56.89
2022-12-03T12:13:14.776Z,56.89
2022-12-03T12:14:15.097Z,57.08
2022-12-03T12:15:15.435Z,57.10
2022-12-03T12:16:15.770Z,57.51
2022-12-03T12:17:16.005Z,56.68
2022-12-03T12:18:16.328Z,57.30
2022-12-03T12:19:16.597Z,56.38
2022-12-03T12:20:16.845Z,56.69
2022-12-03T12:21:17.058Z,57.08
2022-12-03T12:22:17.381Z,57.09
2022-12-03T12:23:17.646Z,57.51
2022-12-03T12:24:17.982Z,62.61
2022-12-03T12:25:18.290Z,62.51
2022-12-03T12:26:18.588Z,56.88
2022-12-03T12:27:18.788Z,56.88
2022-12-03T12:28:19.117Z,56.88
2022-12-03T12:29:19.332Z,57.30
2022-12-03T12:30:19.597Z,57.51
2022-12-03T12:31:19.982Z,56.88
2022-12-03T12:32:20.197Z,57.09
2022-12-03T12:33:20.538Z,57.51
2022-12-03T12:34:20.805Z,56.72
2022-12-03T12:35:21.019Z,57.03
2022-12-03T12:36:21.228Z,57.21
2022-12-03T12:37:21.576Z,57.08
2022-12-03T12:38:21.797Z,57.21
2022-12-03T12:39:22.028Z,57.50
2022-12-03T12:40:22.259Z,57.08
2022-12-03T12:41:22.517Z,57.03
2022-12-03T12:42:22.875Z,57.14
2022-12-03T12:43:24.403Z,57.24
2022-12-03T12:44:23.456Z,62.50
2022-12-03T12:45:23.663Z,62.50
2022-12-03T12:46:47.306Z,57.84
2022-12-03T12:47:25.395Z,57.94
2022-12-03T12:48:24.537Z,57.91
2022-12-03T12:49:24.813Z,62.60
2022-12-03T12:50:25.047Z,62.60
2022-12-03T12:51:25.266Z,62.62
2022-12-03T12:52:25.588Z,62.62
2022-12-03T12:53:25.933Z,62.51
2022-12-03T12:54:26.283Z,57.94
2022-12-03T12:56:50.332Z,57.23
2022-12-03T12:57:50.631Z,62.51
2022-12-03T12:58:51.601Z,62.72